aviador You're here:

YPEA Decoded Metar

PEARCE (AUS-AFB) in AUSTRALIA
Report Time2018-07-17 01:30:00
UTC Time2018-07-17 01:58:32
Flight Rules vfr VFR
Wind340° at 06 kt
W.Decomp.*RWY 36: 5.7 kt HW 2 kt LCW
RWY 05: 2.2 kt HW 5.6 kt LCW
W.Rank340° ranks 27
Current wind is below 340° avg. (6.6)
Visibility9999 m
Phenomena:N/A
Clouds:Scattered 044 Hf
Expected CloudBase > 1,600 ft AGL from Temp-Dew spread
Ceiling4,000 ft
Temp14°C (ISA -1)
Dew Point10°C (77% RH)
AAT11.9°C
QNH1018 hPa
Density Alt79 ft
Elevation161 ft
Report Wrong Elevation
Raw Report
YPEA 170130Z 34006KT 9999 SCT044 14/10 Q1018 FM0300 29012KT 9999
BKN040=

Extra information for YPEA:More info

Metar Taf Metar & Taf Last 4 Metars F.Rules Stats Wind Profile Meteogram Temp Stats Airport Information Weather charts Add Link Nearby VenuesMetar ALERT Operation Metar Decoded Social comments